sensor_id;sensor_type;location;lat;lon;timestamp;pressure;altitude;pressure_sealevel;temperature;humidity
77250;BME280;66287;42.658;27.568;2023-04-01T00:00:10;99419.81;;;10.75;84.04
77250;BME280;66287;42.658;27.568;2023-04-01T00:02:39;99412.72;;;10.74;84.11
77250;BME280;66287;42.658;27.568;2023-04-01T00:05:05;99403.38;;;10.69;83.67
77250;BME280;66287;42.658;27.568;2023-04-01T00:07:31;99406.94;;;10.70;83.90
77250;BME280;66287;42.658;27.568;2023-04-01T00:09:58;99400.47;;;10.71;83.68
77250;BME280;66287;42.658;27.568;2023-04-01T00:12:23;99404.22;;;10.70;83.95
77250;BME280;66287;42.658;27.568;2023-04-01T00:14:50;99405.50;;;10.67;83.89
77250;BME280;66287;42.658;27.568;2023-04-01T00:17:15;99401.13;;;10.66;84.02
77250;BME280;66287;42.658;27.568;2023-04-01T00:19:41;99404.88;;;10.65;83.55
77250;BME280;66287;42.658;27.568;2023-04-01T00:22:07;99389.66;;;10.64;83.90
77250;BME280;66287;42.658;27.568;2023-04-01T00:24:37;99393.66;;;10.62;83.85
77250;BME280;66287;42.658;27.568;2023-04-01T00:27:02;99383.88;;;10.61;83.90
77250;BME280;66287;42.658;27.568;2023-04-01T00:29:27;99375.16;;;10.59;84.04
77250;BME280;66287;42.658;27.568;2023-04-01T00:31:58;99375.72;;;10.61;83.88
77250;BME280;66287;42.658;27.568;2023-04-01T00:34:24;99379.28;;;10.61;83.87
77250;BME280;66287;42.658;27.568;2023-04-01T00:36:49;99377.41;;;10.62;84.46
77250;BME280;66287;42.658;27.568;2023-04-01T00:39:15;99385.31;;;10.63;83.93
77250;BME280;66287;42.658;27.568;2023-04-01T00:41:41;99387.19;;;10.63;84.03
77250;BME280;66287;42.658;27.568;2023-04-01T00:44:20;99380.09;;;10.62;84.23
77250;BME280;66287;42.658;27.568;2023-04-01T00:46:46;99378.84;;;10.64;84.42
77250;BME280;66287;42.658;27.568;2023-04-01T00:49:12;99376.94;;;10.65;84.43
77250;BME280;66287;42.658;27.568;2023-04-01T00:51:37;99381.53;;;10.64;84.45
77250;BME280;66287;42.658;27.568;2023-04-01T00:54:04;99377.19;;;10.63;84.34
77250;BME280;66287;42.658;27.568;2023-04-01T00:56:32;99361.75;;;10.64;84.37
77250;BME280;66287;42.658;27.568;2023-04-01T00:59:00;99367.78;;;10.66;84.37
77250;BME280;66287;42.658;27.568;2023-04-01T01:01:27;99369.66;;;10.65;84.08
77250;BME280;66287;42.658;27.568;2023-04-01T01:03:53;99376.72;;;10.66;84.44
77250;BME280;66287;42.658;27.568;2023-04-01T01:11:53;99363.19;;;10.66;84.53
77250;BME280;66287;42.658;27.568;2023-04-01T01:17:17;99368.81;;;10.65;84.56
77250;BME280;66287;42.658;27.568;2023-04-01T01:19:49;99374.25;;;10.65;84.44
77250;BME280;66287;42.658;27.568;2023-04-01T01:22:35;99356.09;;;10.65;84.73
77250;BME280;66287;42.658;27.568;2023-04-01T01:27:37;99349.47;;;10.61;84.58
77250;BME280;66287;42.658;27.568;2023-04-01T01:38:02;99355.38;;;10.58;84.70
77250;BME280;66287;42.658;27.568;2023-04-01T01:40:29;99352.03;;;10.56;84.60
77250;BME280;66287;42.658;27.568;2023-04-01T01:42:57;99361.22;;;10.55;84.73
77250;BME280;66287;42.658;27.568;2023-04-01T01:45:24;99356.25;;;10.52;84.60
77250;BME280;66287;42.658;27.568;2023-04-01T01:47:51;99360.63;;;10.53;84.51
77250;BME280;66287;42.658;27.568;2023-04-01T01:50:17;99365.22;;;10.53;84.46
77250;BME280;66287;42.658;27.568;2023-04-01T01:52:43;99363.31;;;10.53;84.86
77250;BME280;66287;42.658;27.568;2023-04-01T01:55:28;99352.50;;;10.53;84.62
77250;BME280;66287;42.658;27.568;2023-04-01T01:57:55;99364.16;;;10.54;84.42
77250;BME280;66287;42.658;27.568;2023-04-01T02:00:24;99357.06;;;10.53;84.73
77250;BME280;66287;42.658;27.568;2023-04-01T02:02:49;99343.75;;;10.51;84.34
77250;BME280;66287;42.658;27.568;2023-04-01T02:05:16;99341.25;;;10.50;84.90
77250;BME280;66287;42.658;27.568;2023-04-01T02:07:43;99343.59;;;10.46;84.47
77250;BME280;66287;42.658;27.568;2023-04-01T02:10:12;99334.63;;;10.46;84.41
77250;BME280;66287;42.658;27.568;2023-04-01T02:12:38;99327.34;;;10.46;84.61
77250;BME280;66287;42.658;27.568;2023-04-01T02:15:07;99321.31;;;10.44;84.62
77250;BME280;66287;42.658;27.568;2023-04-01T02:17:35;99320.69;;;10.42;84.22
77250;BME280;66287;42.658;27.568;2023-04-01T02:20:21;99316.81;;;10.38;84.42
77250;BME280;66287;42.658;27.568;2023-04-01T02:22:52;99321.16;;;10.39;84.29
77250;BME280;66287;42.658;27.568;2023-04-01T02:25:23;99324.09;;;10.38;84.29
77250;BME280;66287;42.658;27.568;2023-04-01T02:27:50;99324.94;;;10.38;84.50
77250;BME280;66287;42.658;27.568;2023-04-01T02:30:16;99309.72;;;10.37;84.61
77250;BME280;66287;42.658;27.568;2023-04-01T02:32:42;99311.00;;;10.34;84.57
77250;BME280;66287;42.658;27.568;2023-04-01T02:35:11;99305.81;;;10.33;84.48
77250;BME280;66287;42.658;27.568;2023-04-01T02:37:39;99305.59;;;10.34;84.30
77250;BME280;66287;42.658;27.568;2023-04-01T02:40:07;99315.59;;;10.34;84.31
77250;BME280;66287;42.658;27.568;2023-04-01T02:42:34;99309.94;;;10.35;84.67
77250;BME280;66287;42.658;27.568;2023-04-01T02:44:59;99307.69;;;10.32;84.77
77250;BME280;66287;42.658;27.568;2023-04-01T02:47:25;99304.38;;;10.30;84.72
77250;BME280;66287;42.658;27.568;2023-04-01T02:49:51;99295.19;;;10.31;84.58
77250;BME280;66287;42.658;27.568;2023-04-01T02:52:23;99294.59;;;10.29;84.50
77250;BME280;66287;42.658;27.568;2023-04-01T02:54:48;99290.84;;;10.30;84.57
77250;BME280;66287;42.658;27.568;2023-04-01T02:57:14;99286.25;;;10.31;84.83
77250;BME280;66287;42.658;27.568;2023-04-01T02:59:39;99288.56;;;10.27;84.27
77250;BME280;66287;42.658;27.568;2023-04-01T03:02:05;99282.31;;;10.27;84.57
77250;BME280;66287;42.658;27.568;2023-04-01T03:04:31;99290.66;;;10.25;84.34
77250;BME280;66287;42.658;27.568;2023-04-01T03:06:57;99279.00;;;10.25;84.45
77250;BME280;66287;42.658;27.568;2023-04-01T03:09:22;99289.84;;;10.25;84.37
77250;BME280;66287;42.658;27.568;2023-04-01T03:11:48;99298.19;;;10.23;84.57
77250;BME280;66287;42.658;27.568;2023-04-01T03:14:13;99295.69;;;10.22;84.30
77250;BME280;66287;42.658;27.568;2023-04-01T03:16:39;99292.97;;;10.22;84.78
77250;BME280;66287;42.658;27.568;2023-04-01T03:19:05;99298.22;;;10.17;84.11
77250;BME280;66287;42.658;27.568;2023-04-01T03:21:30;99291.16;;;10.16;84.72
77250;BME280;66287;42.658;27.568;2023-04-01T03:23:56;99279.94;;;10.12;84.10
77250;BME280;66287;42.658;27.568;2023-04-01T03:26:21;99288.06;;;10.12;84.24
77250;BME280;66287;42.658;27.568;2023-04-01T03:28:48;99291.59;;;10.13;84.28
77250;BME280;66287;42.658;27.568;2023-04-01T03:31:13;99290.75;;;10.12;84.29
77250;BME280;66287;42.658;27.568;2023-04-01T03:33:47;99281.81;;;10.12;84.84
77250;BME280;66287;42.658;27.568;2023-04-01T03:36:13;99286.00;;;10.08;84.26
77250;BME280;66287;42.658;27.568;2023-04-01T03:38:40;99282.47;;;10.07;84.28
77250;BME280;66287;42.658;27.568;2023-04-01T03:41:05;99287.50;;;10.03;84.04
77250;BME280;66287;42.658;27.568;2023-04-01T03:43:32;99283.13;;;10.02;84.24
77250;BME280;66287;42.658;27.568;2023-04-01T03:46:00;99285.84;;;10.02;84.04
77250;BME280;66287;42.658;27.568;2023-04-01T03:48:25;99287.09;;;10.00;84.07
77250;BME280;66287;42.658;27.568;2023-04-01T03:50:51;99283.34;;;10.01;84.25
77250;BME280;66287;42.658;27.568;2023-04-01T03:53:17;99286.66;;;10.03;84.33
77250;BME280;66287;42.658;27.568;2023-04-01T03:55:45;99290.22;;;10.03;84.39
77250;BME280;66287;42.658;27.568;2023-04-01T03:58:10;99278.94;;;10.07;84.34
77250;BME280;66287;42.658;27.568;2023-04-01T04:00:36;99270.81;;;10.07;84.44
77250;BME280;66287;42.658;27.568;2023-04-01T04:03:02;99268.72;;;10.09;84.32
77250;BME280;66287;42.658;27.568;2023-04-01T04:05:31;99272.03;;;10.11;84.58
77250;BME280;66287;42.658;27.568;2023-04-01T04:07:56;99272.88;;;10.11;84.25
77250;BME280;66287;42.658;27.568;2023-04-01T04:10:22;99273.25;;;10.15;84.04
77250;BME280;66287;42.658;27.568;2023-04-01T04:12:50;99275.75;;;10.16;84.29
77250;BME280;66287;42.658;27.568;2023-04-01T04:15:16;99280.72;;;10.19;84.25
77250;BME280;66287;42.658;27.568;2023-04-01T04:17:42;99280.06;;;10.24;84.46
77250;BME280;66287;42.658;27.568;2023-04-01T04:20:09;99277.72;;;10.27;84.46
77250;BME280;66287;42.658;27.568;2023-04-01T04:22:34;99281.03;;;10.29;84.23
77250;BME280;66287;42.658;27.568;2023-04-01T04:25:02;99274.75;;;10.35;84.26
77250;BME280;66287;42.658;27.568;2023-04-01T04:27:28;99271.50;;;10.45;84.59
77250;BME280;66287;42.658;27.568;2023-04-01T04:30:04;99273.31;;;10.51;84.48
77250;BME280;66287;42.658;27.568;2023-04-01T04:32:30;99273.69;;;10.55;84.54
77250;BME280;66287;42.658;27.568;2023-04-01T04:34:56;99274.81;;;10.65;84.59
77250;BME280;66287;42.658;27.568;2023-04-01T04:37:21;99285.53;;;10.79;84.02
77250;BME280;66287;42.658;27.568;2023-04-01T04:39:47;99278.44;;;10.96;84.74
77250;BME280;66287;42.658;27.568;2023-04-01T04:42:12;99278.00;;;11.11;83.50
77250;BME280;66287;42.658;27.568;2023-04-01T04:44:38;99276.47;;;11.33;83.71
77250;BME280;66287;42.658;27.568;2023-04-01T04:47:04;99277.38;;;11.68;83.67
77250;BME280;66287;42.658;27.568;2023-04-01T04:49:30;99269.91;;;12.05;83.67
77250;BME280;66287;42.658;27.568;2023-04-01T04:51:55;99269.19;;;12.45;83.70
77250;BME280;66287;42.658;27.568;2023-04-01T04:54:23;99267.09;;;12.87;83.39
77250;BME280;66287;42.658;27.568;2023-04-01T04:56:55;99269.13;;;13.32;83.37
77250;BME280;66287;42.658;27.568;2023-04-01T04:59:22;99262.25;;;13.74;82.81
77250;BME280;66287;42.658;27.568;2023-04-01T05:01:55;99266.78;;;14.19;82.38
77250;BME280;66287;42.658;27.568;2023-04-01T05:04:21;99264.94;;;14.58;82.07
77250;BME280;66287;42.658;27.568;2023-04-01T05:06:46;99259.44;;;14.97;81.78
77250;BME280;66287;42.658;27.568;2023-04-01T05:09:13;99258.69;;;15.28;81.67
77250;BME280;66287;42.658;27.568;2023-04-01T05:11:38;99260.31;;;15.51;81.06
77250;BME280;66287;42.658;27.568;2023-04-01T05:14:05;99259.38;;;15.67;79.92
77250;BME280;66287;42.658;27.568;2023-04-01T05:16:31;99254.03;;;15.77;78.42
77250;BME280;66287;42.658;27.568;2023-04-01T05:18:58;99252.03;;;15.68;77.25
77250;BME280;66287;42.658;27.568;2023-04-01T05:21:23;99257.16;;;15.64;76.96
77250;BME280;66287;42.658;27.568;2023-04-01T05:23:49;99256.44;;;15.74;77.35
77250;BME280;66287;42.658;27.568;2023-04-01T05:26:15;99254.19;;;15.66;76.63
77250;BME280;66287;42.658;27.568;2023-04-01T05:28:41;99251.38;;;15.56;76.29
77250;BME280;66287;42.658;27.568;2023-04-01T05:31:07;99247.34;;;15.41;75.94
77250;BME280;66287;42.658;27.568;2023-04-01T05:33:36;99249.69;;;15.28;75.55
77250;BME280;66287;42.658;27.568;2023-04-01T05:36:09;99238.91;;;15.16;76.49
77250;BME280;66287;42.658;27.568;2023-04-01T05:38:35;99232.38;;;15.17;77.33
77250;BME280;66287;42.658;27.568;2023-04-01T05:41:02;99233.34;;;15.33;75.92
77250;BME280;66287;42.658;27.568;2023-04-01T05:43:29;99228.88;;;15.48;73.59
77250;BME280;66287;42.658;27.568;2023-04-01T05:45:58;99222.03;;;15.73;73.26
77250;BME280;66287;42.658;27.568;2023-04-01T05:48:35;99225.22;;;15.97;73.34
77250;BME280;66287;42.658;27.568;2023-04-01T05:51:01;99213.88;;;16.20;73.61
77250;BME280;66287;42.658;27.568;2023-04-01T05:53:28;99211.00;;;16.37;74.31
77250;BME280;66287;42.658;27.568;2023-04-01T05:55:53;99213.78;;;16.47;74.10
77250;BME280;66287;42.658;27.568;2023-04-01T05:58:21;99203.13;;;16.50;72.99
77250;BME280;66287;42.658;27.568;2023-04-01T06:00:47;99207.63;;;16.72;72.88
77250;BME280;66287;42.658;27.568;2023-04-01T06:03:15;99210.19;;;17.04;73.77
77250;BME280;66287;42.658;27.568;2023-04-01T06:05:41;99202.56;;;17.11;70.65
77250;BME280;66287;42.658;27.568;2023-04-01T06:08:11;99207.25;;;17.15;70.60
77250;BME280;66287;42.658;27.568;2023-04-01T06:15:56;99199.91;;;17.56;67.99
77250;BME280;66287;42.658;27.568;2023-04-01T06:23:51;99185.63;;;17.60;64.40
77250;BME280;66287;42.658;27.568;2023-04-01T06:39:47;99206.06;;;16.39;70.21
77250;BME280;66287;42.658;27.568;2023-04-01T06:45:01;99192.56;;;16.22;71.05
77250;BME280;66287;42.658;27.568;2023-04-01T06:48:09;99196.38;;;16.16;71.77
77250;BME280;66287;42.658;27.568;2023-04-01T06:54:09;99198.91;;;16.28;71.74
77250;BME280;66287;42.658;27.568;2023-04-01T06:56:58;99204.97;;;16.40;72.05
77250;BME280;66287;42.658;27.568;2023-04-01T06:59:29;99200.16;;;16.57;70.49
77250;BME280;66287;42.658;27.568;2023-04-01T07:04:38;99209.03;;;16.74;67.89
77250;BME280;66287;42.658;27.568;2023-04-01T07:07:10;99204.66;;;16.83;68.06
77250;BME280;66287;42.658;27.568;2023-04-01T07:09:49;99206.91;;;17.02;71.02
77250;BME280;66287;42.658;27.568;2023-04-01T07:15:24;99210.25;;;17.14;71.44
77250;BME280;66287;42.658;27.568;2023-04-01T07:17:54;99206.38;;;17.05;68.93
77250;BME280;66287;42.658;27.568;2023-04-01T07:20:23;99203.63;;;17.00;68.57
77250;BME280;66287;42.658;27.568;2023-04-01T07:22:49;99202.22;;;16.87;64.78
77250;BME280;66287;42.658;27.568;2023-04-01T07:28:17;99195.75;;;17.23;69.50
77250;BME280;66287;42.658;27.568;2023-04-01T07:31:03;99200.16;;;17.40;68.70
77250;BME280;66287;42.658;27.568;2023-04-01T07:51:15;99165.25;;;19.84;57.58
77250;BME280;66287;42.658;27.568;2023-04-01T07:53:45;99152.97;;;20.29;58.82
77250;BME280;66287;42.658;27.568;2023-04-01T07:56:13;99155.25;;;20.51;56.56
77250;BME280;66287;42.658;27.568;2023-04-01T08:01:19;99145.09;;;20.71;57.28
77250;BME280;66287;42.658;27.568;2023-04-01T08:09:11;99141.94;;;20.35;57.25
77250;BME280;66287;42.658;27.568;2023-04-01T08:12:01;99137.81;;;20.08;55.63
77250;BME280;66287;42.658;27.568;2023-04-01T08:20:32;99131.50;;;19.45;57.32
77250;BME280;66287;42.658;27.568;2023-04-01T08:23:05;99125.97;;;19.79;56.60
77250;BME280;66287;42.658;27.568;2023-04-01T08:25:37;99131.53;;;20.26;56.25
77250;BME280;66287;42.658;27.568;2023-04-01T08:30:47;99124.34;;;20.30;56.54
77250;BME280;66287;42.658;27.568;2023-04-01T08:33:24;99120.97;;;20.39;54.60
77250;BME280;66287;42.658;27.568;2023-04-01T08:38:34;99106.78;;;20.74;55.74
77250;BME280;66287;42.658;27.568;2023-04-01T08:43:51;99095.19;;;20.06;56.50
77250;BME280;66287;42.658;27.568;2023-04-01T08:46:33;99090.47;;;20.11;56.18
77250;BME280;66287;42.658;27.568;2023-04-01T09:10:13;99050.28;;;22.07;53.37
77250;BME280;66287;42.658;27.568;2023-04-01T09:12:48;99061.38;;;21.88;51.70
77250;BME280;66287;42.658;27.568;2023-04-01T09:15:30;99044.53;;;21.43;55.51
77250;BME280;66287;42.658;27.568;2023-04-01T09:20:38;99066.03;;;20.28;56.17
77250;BME280;66287;42.658;27.568;2023-04-01T09:28:25;99045.69;;;19.82;56.61
77250;BME280;66287;42.658;27.568;2023-04-01T09:35:47;99043.66;;;20.16;52.93
77250;BME280;66287;42.658;27.568;2023-04-01T09:38:20;99040.50;;;20.47;61.77
77250;BME280;66287;42.658;27.568;2023-04-01T09:43:27;99018.94;;;20.91;55.53
77250;BME280;66287;42.658;27.568;2023-04-01T09:46:02;98999.06;;;20.94;55.17
77250;BME280;66287;42.658;27.568;2023-04-01T09:54:01;98995.97;;;21.15;54.37
77250;BME280;66287;42.658;27.568;2023-04-01T09:59:24;98991.47;;;21.38;49.14
77250;BME280;66287;42.658;27.568;2023-04-01T10:16:03;98978.69;;;22.74;46.90
77250;BME280;66287;42.658;27.568;2023-04-01T10:43:00;98934.03;;;23.02;50.21
77250;BME280;66287;42.658;27.568;2023-04-01T10:45:57;98923.19;;;23.68;46.97
77250;BME280;66287;42.658;27.568;2023-04-01T10:56:29;98926.78;;;22.84;50.27
77250;BME280;66287;42.658;27.568;2023-04-01T11:13:26;98887.25;;;27.76;41.79
77250;BME280;66287;42.658;27.568;2023-04-01T11:16:12;98874.94;;;27.65;44.38
77250;BME280;66287;42.658;27.568;2023-04-01T11:19:04;98871.34;;;27.53;46.29
77250;BME280;66287;42.658;27.568;2023-04-01T11:29:46;98849.59;;;25.43;49.05
77250;BME280;66287;42.658;27.568;2023-04-01T11:35:54;98835.16;;;25.29;50.82
77250;BME280;66287;42.658;27.568;2023-04-01T11:38:26;98838.03;;;25.03;50.47
77250;BME280;66287;42.658;27.568;2023-04-01T11:43:54;98834.50;;;24.77;50.00
77250;BME280;66287;42.658;27.568;2023-04-01T11:52:25;98839.75;;;23.92;46.99
77250;BME280;66287;42.658;27.568;2023-04-01T12:05:31;98823.91;;;23.66;46.92
77250;BME280;66287;42.658;27.568;2023-04-01T12:08:02;98822.31;;;23.74;51.67
77250;BME280;66287;42.658;27.568;2023-04-01T12:20:57;98803.44;;;24.02;52.06
77250;BME280;66287;42.658;27.568;2023-04-01T12:28:59;98810.09;;;24.18;49.53
77250;BME280;66287;42.658;27.568;2023-04-01T12:36:26;98810.59;;;24.55;46.06
77250;BME280;66287;42.658;27.568;2023-04-01T12:41:29;98812.94;;;24.91;47.80
77250;BME280;66287;42.658;27.568;2023-04-01T13:09:40;98760.38;;;25.12;48.40
77250;BME280;66287;42.658;27.568;2023-04-01T13:19:54;98749.81;;;25.34;48.83
77250;BME280;66287;42.658;27.568;2023-04-01T13:27:30;98734.03;;;25.26;46.61
77250;BME280;66287;42.658;27.568;2023-04-01T13:37:41;98722.91;;;25.97;42.59
77250;BME280;66287;42.658;27.568;2023-04-01T13:40:26;98742.91;;;26.24;45.24
77250;BME280;66287;42.658;27.568;2023-04-01T13:45:21;98739.69;;;26.79;43.11
77250;BME280;66287;42.658;27.568;2023-04-01T13:48:17;98735.56;;;26.40;45.43
77250;BME280;66287;42.658;27.568;2023-04-01T14:03:27;98703.63;;;24.07;48.45
77250;BME280;66287;42.658;27.568;2023-04-01T14:11:26;98703.88;;;24.40;46.57
77250;BME280;66287;42.658;27.568;2023-04-01T14:19:22;98698.66;;;24.47;45.91
77250;BME280;66287;42.658;27.568;2023-04-01T14:24:32;98690.09;;;24.14;49.24
77250;BME280;66287;42.658;27.568;2023-04-01T14:29:46;98686.06;;;23.94;51.11
77250;BME280;66287;42.658;27.568;2023-04-01T14:32:24;98681.03;;;23.88;50.66
77250;BME280;66287;42.658;27.568;2023-04-01T14:34:55;98667.03;;;23.58;47.38
77250;BME280;66287;42.658;27.568;2023-04-01T14:37:30;98662.97;;;23.47;53.90
77250;BME280;66287;42.658;27.568;2023-04-01T14:42:45;98657.25;;;23.18;52.66
77250;BME280;66287;42.658;27.568;2023-04-01T14:47:59;98650.38;;;22.89;53.78
77250;BME280;66287;42.658;27.568;2023-04-01T14:50:28;98644.88;;;23.07;56.04
77250;BME280;66287;42.658;27.568;2023-04-01T14:55:28;98644.06;;;23.41;53.40
77250;BME280;66287;42.658;27.568;2023-04-01T14:57:59;98643.13;;;23.62;51.71
77250;BME280;66287;42.658;27.568;2023-04-01T15:00:36;98634.06;;;24.26;52.88
77250;BME280;66287;42.658;27.568;2023-04-01T15:08:31;98631.53;;;25.71;49.18
77250;BME280;66287;42.658;27.568;2023-04-01T15:16:20;98618.66;;;25.88;47.47
77250;BME280;66287;42.658;27.568;2023-04-01T15:26:33;98625.53;;;23.84;47.91
77250;BME280;66287;42.658;27.568;2023-04-01T15:37:00;98608.44;;;22.87;51.45
77250;BME280;66287;42.658;27.568;2023-04-01T15:39:37;98613.25;;;22.73;50.70
77250;BME280;66287;42.658;27.568;2023-04-01T15:44:41;98601.88;;;22.66;50.57
77250;BME280;66287;42.658;27.568;2023-04-01T15:49:52;98613.72;;;22.18;49.49
77250;BME280;66287;42.658;27.568;2023-04-01T15:57:36;98618.53;;;22.44;52.20
77250;BME280;66287;42.658;27.568;2023-04-01T16:00:14;98624.16;;;22.30;51.21
77250;BME280;66287;42.658;27.568;2023-04-01T16:10:23;98617.19;;;22.02;52.64
77250;BME280;66287;42.658;27.568;2023-04-01T16:15:37;98629.13;;;21.88;55.70
77250;BME280;66287;42.658;27.568;2023-04-01T16:18:09;98636.56;;;21.88;55.24
77250;BME280;66287;42.658;27.568;2023-04-01T16:23:22;98648.75;;;21.64;57.64
77250;BME280;66287;42.658;27.568;2023-04-01T16:34:08;98660.53;;;21.56;55.89
77250;BME280;66287;42.658;27.568;2023-04-01T16:36:37;98659.03;;;21.50;55.00
77250;BME280;66287;42.658;27.568;2023-04-01T16:41:49;98663.94;;;21.40;56.90
77250;BME280;66287;42.658;27.568;2023-04-01T16:46:44;98664.69;;;21.31;56.32
77250;BME280;66287;42.658;27.568;2023-04-01T16:56:38;98673.59;;;21.15;56.66
77250;BME280;66287;42.658;27.568;2023-04-01T17:01:39;98669.81;;;21.11;57.27
77250;BME280;66287;42.658;27.568;2023-04-01T17:04:08;98672.06;;;21.09;57.25
77250;BME280;66287;42.658;27.568;2023-04-01T17:07:01;98688.09;;;21.07;58.02
77250;BME280;66287;42.658;27.568;2023-04-01T17:27:41;98683.75;;;20.78;60.13
77250;BME280;66287;42.658;27.568;2023-04-01T17:33:10;98694.34;;;20.71;60.87
77250;BME280;66287;42.658;27.568;2023-04-01T17:35:57;98700.47;;;20.68;60.70
77250;BME280;66287;42.658;27.568;2023-04-01T17:43:19;98715.88;;;20.55;60.87
77250;BME280;66287;42.658;27.568;2023-04-01T17:45:49;98709.34;;;20.51;60.79
77250;BME280;66287;42.658;27.568;2023-04-01T17:48:22;98721.75;;;20.49;61.60
77250;BME280;66287;42.658;27.568;2023-04-01T17:55:58;98715.56;;;20.24;62.22
77250;BME280;66287;42.658;27.568;2023-04-01T17:58:28;98708.09;;;20.11;61.16
77250;BME280;66287;42.658;27.568;2023-04-01T18:06:14;98707.94;;;19.89;62.40
77250;BME280;66287;42.658;27.568;2023-04-01T18:08:56;98711.34;;;19.81;62.56
77250;BME280;66287;42.658;27.568;2023-04-01T18:19:18;98695.00;;;19.57;63.33
77250;BME280;66287;42.658;27.568;2023-04-01T18:21:49;98706.38;;;19.45;63.98
77250;BME280;66287;42.658;27.568;2023-04-01T18:26:44;98707.56;;;19.39;63.94
77250;BME280;66287;42.658;27.568;2023-04-01T18:29:26;98713.97;;;19.35;64.91
77250;BME280;66287;42.658;27.568;2023-04-01T18:32:13;98716.25;;;19.27;64.17
77250;BME280;66287;42.658;27.568;2023-04-01T18:37:19;98715.06;;;19.15;65.15
77250;BME280;66287;42.658;27.568;2023-04-01T18:39:57;98709.66;;;19.10;64.84
77250;BME280;66287;42.658;27.568;2023-04-01T18:45:03;98709.47;;;19.01;65.00
77250;BME280;66287;42.658;27.568;2023-04-01T18:47:43;98718.63;;;18.97;65.70
77250;BME280;66287;42.658;27.568;2023-04-01T18:55:46;98730.56;;;18.82;65.09
77250;BME280;66287;42.658;27.568;2023-04-01T18:58:22;98735.53;;;18.80;66.79
77250;BME280;66287;42.658;27.568;2023-04-01T19:01:11;98733.63;;;18.80;66.42
77250;BME280;66287;42.658;27.568;2023-04-01T19:03:43;98741.63;;;18.77;65.36
77250;BME280;66287;42.658;27.568;2023-04-01T19:06:15;98743.91;;;18.70;65.33
77250;BME280;66287;42.658;27.568;2023-04-01T19:08:42;98757.38;;;18.66;65.42
77250;BME280;66287;42.658;27.568;2023-04-01T19:11:10;98763.22;;;18.59;65.55
77250;BME280;66287;42.658;27.568;2023-04-01T19:14:04;98765.72;;;18.56;65.35
77250;BME280;66287;42.658;27.568;2023-04-01T19:21:35;98766.66;;;18.41;65.32
77250;BME280;66287;42.658;27.568;2023-04-01T19:26:33;98770.03;;;18.33;65.46
77250;BME280;66287;42.658;27.568;2023-04-01T19:36:36;98774.84;;;18.17;65.73
77250;BME280;66287;42.658;27.568;2023-04-01T19:44:11;98791.94;;;18.04;65.64
77250;BME280;66287;42.658;27.568;2023-04-01T19:46:43;98780.19;;;17.99;65.50
77250;BME280;66287;42.658;27.568;2023-04-01T19:57:15;98790.16;;;17.84;66.11
77250;BME280;66287;42.658;27.568;2023-04-01T20:02:39;98796.56;;;17.75;66.39
77250;BME280;66287;42.658;27.568;2023-04-01T20:05:22;98801.78;;;17.71;66.39
77250;BME280;66287;42.658;27.568;2023-04-01T20:07:52;98800.13;;;17.70;65.88
77250;BME280;66287;42.658;27.568;2023-04-01T20:10:22;98796.31;;;17.66;66.79
77250;BME280;66287;42.658;27.568;2023-04-01T20:15:37;98805.91;;;17.58;66.00
77250;BME280;66287;42.658;27.568;2023-04-01T20:18:15;98811.44;;;17.53;66.59
77250;BME280;66287;42.658;27.568;2023-04-01T20:20:50;98810.91;;;17.51;66.60
77250;BME280;66287;42.658;27.568;2023-04-01T20:23:32;98815.59;;;17.46;66.35
77250;BME280;66287;42.658;27.568;2023-04-01T20:26:04;98824.34;;;17.43;67.01
77250;BME280;66287;42.658;27.568;2023-04-01T20:28:51;98828.47;;;17.40;67.10
77250;BME280;66287;42.658;27.568;2023-04-01T20:31:27;98842.50;;;17.29;66.90
77250;BME280;66287;42.658;27.568;2023-04-01T20:36:33;98857.84;;;17.30;67.43
77250;BME280;66287;42.658;27.568;2023-04-01T20:41:27;98860.31;;;17.21;67.65
77250;BME280;66287;42.658;27.568;2023-04-01T20:49:20;98862.84;;;17.07;67.82
77250;BME280;66287;42.658;27.568;2023-04-01T20:57:11;98866.44;;;16.93;68.12
77250;BME280;66287;42.658;27.568;2023-04-01T20:59:47;98880.13;;;16.87;67.78
77250;BME280;66287;42.658;27.568;2023-04-01T21:12:46;98863.19;;;16.65;69.00
77250;BME280;66287;42.658;27.568;2023-04-01T21:38:11;98854.41;;;16.23;68.56
77250;BME280;66287;42.658;27.568;2023-04-01T21:51:10;98856.03;;;15.93;68.14
77250;BME280;66287;42.658;27.568;2023-04-01T21:53:56;98853.00;;;15.84;68.50
77250;BME280;66287;42.658;27.568;2023-04-01T21:56:39;98850.00;;;15.76;68.12
77250;BME280;66287;42.658;27.568;2023-04-01T22:02:09;98833.00;;;15.64;67.94
77250;BME280;66287;42.658;27.568;2023-04-01T22:04:49;98855.94;;;15.58;68.18
77250;BME280;66287;42.658;27.568;2023-04-01T22:07:23;98867.63;;;15.48;68.33
77250;BME280;66287;42.658;27.568;2023-04-01T22:22:45;98899.22;;;15.34;68.58
77250;BME280;66287;42.658;27.568;2023-04-01T22:25:16;98904.41;;;15.30;68.72
77250;BME280;66287;42.658;27.568;2023-04-01T22:27:51;98911.25;;;15.33;68.73
77250;BME280;66287;42.658;27.568;2023-04-01T22:32:47;98922.03;;;15.12;68.22
77250;BME280;66287;42.658;27.568;2023-04-01T22:35:27;98926.13;;;15.10;68.83
77250;BME280;66287;42.658;27.568;2023-04-01T22:38:03;98934.25;;;15.05;68.53
77250;BME280;66287;42.658;27.568;2023-04-01T22:40:42;98938.84;;;14.99;68.84
77250;BME280;66287;42.658;27.568;2023-04-01T22:43:13;98946.19;;;14.94;69.43
77250;BME280;66287;42.658;27.568;2023-04-01T22:45:54;98951.06;;;14.87;69.04
77250;BME280;66287;42.658;27.568;2023-04-01T22:48:47;98951.31;;;14.85;68.90
77250;BME280;66287;42.658;27.568;2023-04-01T22:56:30;98959.63;;;14.68;68.50
77250;BME280;66287;42.658;27.568;2023-04-01T22:59:06;98951.72;;;14.67;68.97